createdAt,value
2023-03-05T00:03:25.078Z,19.9
2023-03-05T00:13:26.136Z,17.8
2023-03-05T00:23:26.053Z,17.6
2023-03-05T00:33:26.405Z,18.1
2023-03-05T00:43:26.802Z,18.2
2023-03-05T00:53:27.205Z,17.6
2023-03-05T01:03:27.169Z,18.2
2023-03-05T01:13:27.798Z,18.1
2023-03-05T01:23:28.483Z,20.1
2023-03-05T01:33:28.558Z,17.8
2023-03-05T01:43:28.600Z,17.8
2023-03-05T01:53:29.081Z,17.8
2023-03-05T02:03:29.322Z,18.2
2023-03-05T02:13:30.722Z,19.6
2023-03-05T02:23:30.366Z,17.9
2023-03-05T02:33:30.321Z,17.9
2023-03-05T02:43:30.732Z,19.9
2023-03-05T02:53:30.998Z,17.8
2023-03-05T03:03:07.437Z,18
2023-03-05T03:13:07.242Z,18.3
2023-03-05T03:23:07.030Z,18.1
2023-03-05T03:33:07.924Z,17.8
2023-03-05T03:43:07.995Z,18
2023-03-05T03:53:08.459Z,18.2
2023-03-05T04:03:09.410Z,19.7
2023-03-05T04:13:11.258Z,18.1
2023-03-05T04:23:13.661Z,17.7
2023-03-05T04:33:16.132Z,19.7
2023-03-05T04:43:17.334Z,17.8
2023-03-05T04:53:18.934Z,17.3
2023-03-05T05:03:19.899Z,17.6
2023-03-05T05:13:22.740Z,17.6
2023-03-05T05:23:21.305Z,17.9
2023-03-05T05:33:20.859Z,17.7
2023-03-05T05:43:21.779Z,17.8
2023-03-05T05:53:23.986Z,17.9
2023-03-05T06:03:25.802Z,20
2023-03-05T06:13:34.217Z,21.8
2023-03-05T06:23:40.902Z,19.9
2023-03-05T06:33:43.749Z,21.8
2023-03-05T06:43:50.624Z,22.5
2023-03-05T06:54:02.084Z,22.8
2023-03-05T07:04:15.533Z,23.1
2023-03-05T07:14:31.002Z,23.9
2023-03-05T07:24:45.993Z,24.4
2023-03-05T07:35:01.018Z,25
2023-03-05T07:45:20.140Z,26.6
2023-03-05T07:55:36.545Z,26.4
2023-03-05T08:05:53.084Z,25.9
2023-03-05T08:16:08.383Z,27.5
2023-03-05T08:26:23.845Z,26.9
2023-03-05T08:36:38.468Z,26.8
2023-03-05T08:46:53.624Z,26.6
2023-03-05T08:57:08.727Z,25.3
2023-03-05T09:03:11.825Z,25.4
2023-03-05T09:13:29.910Z,26.9
2023-03-05T09:23:45.017Z,24.9
2023-03-05T09:34:03.292Z,27.2
2023-03-05T09:44:20.030Z,26.7
2023-03-05T09:54:34.970Z,26.1
2023-03-05T10:04:48.685Z,25.6
2023-03-05T10:15:01.140Z,25.8
2023-03-05T10:25:12.770Z,25.6
2023-03-05T10:35:25.141Z,25.6
2023-03-05T10:45:37.212Z,25.7
2023-03-05T10:55:47.069Z,25.4
2023-03-05T11:05:56.094Z,25.3
2023-03-05T11:16:02.372Z,25
2023-03-05T11:26:07.686Z,23.4
2023-03-05T11:36:12.908Z,24.1
2023-03-05T11:46:18.735Z,24.8
2023-03-05T11:56:26.111Z,23.7
2023-03-05T12:06:32.891Z,23.4
2023-03-05T12:16:42.971Z,25.6
2023-03-05T12:26:47.694Z,23.9
2023-03-05T12:36:58.495Z,24.6
2023-03-05T12:47:07.288Z,25.7
2023-03-05T12:57:14.995Z,25.8
2023-03-05T13:07:20.956Z,22.8
2023-03-05T13:17:24.457Z,21.6
2023-03-05T13:27:25.510Z,21.2
2023-03-05T13:37:25.767Z,21.1
2023-03-05T13:47:26.677Z,22.8
2023-03-05T13:57:27.999Z,21
2023-03-05T14:07:29.103Z,20.7
2023-03-05T14:17:30.925Z,22.3
2023-03-05T14:27:30.798Z,20.6
2023-03-05T14:37:31.601Z,20.6
2023-03-05T14:47:32.497Z,20.4
2023-03-05T14:57:34.044Z,19.6
2023-03-05T15:03:08.905Z,20.4
2023-03-05T15:13:09.238Z,22
2023-03-05T15:23:09.127Z,20.5
2023-03-05T15:33:10.001Z,20.4
2023-03-05T15:43:11.248Z,21.9
2023-03-05T15:53:12.445Z,19.9
2023-03-05T16:03:13.307Z,20.1
2023-03-05T16:13:15.526Z,19.9
2023-03-05T16:23:17.339Z,21.5
2023-03-05T16:33:19.290Z,19.9
2023-03-05T16:43:21.207Z,19.4
2023-03-05T16:53:23.087Z,19.9
2023-03-05T17:03:24.031Z,19.6
2023-03-05T17:13:24.642Z,21.4
2023-03-05T17:23:24.799Z,19.8
2023-03-05T17:33:25.198Z,19.6
2023-03-05T17:43:25.227Z,19.7
2023-03-05T17:53:26.138Z,21.3
2023-03-05T18:03:26.528Z,19.3
2023-03-05T18:13:27.206Z,18.8
2023-03-05T18:23:28.291Z,18.6
2023-03-05T18:33:28.190Z,19.3
2023-03-05T18:43:27.916Z,19.3
2023-03-05T18:53:28.196Z,19.1
2023-03-05T19:03:28.324Z,18.6
2023-03-05T19:13:29.000Z,20.7
2023-03-05T19:23:29.903Z,18.9
2023-03-05T19:33:29.590Z,18.9
2023-03-05T19:43:29.760Z,18.6
2023-03-05T19:53:30.890Z,18.9
2023-03-05T20:03:31.086Z,18.9
2023-03-05T20:13:32.040Z,20.3
2023-03-05T20:23:31.926Z,18.8
2023-03-05T20:33:31.680Z,18.8
2023-03-05T20:43:32.269Z,20.2
2023-03-05T20:53:32.868Z,18.4
2023-03-05T21:03:08.052Z,20.1
2023-03-05T21:13:08.016Z,18.8
2023-03-05T21:23:08.166Z,18.4
2023-03-05T21:33:09.369Z,18.4
2023-03-05T21:43:09.420Z,18.6
2023-03-05T21:53:09.763Z,18.6
2023-03-05T22:03:10.581Z,18.3
2023-03-05T22:13:12.684Z,20.1
2023-03-05T22:23:13.756Z,18.6
2023-03-05T22:33:17.007Z,18.1
2023-03-05T22:43:17.492Z,18.4
2023-03-05T22:53:19.319Z,19.9
2023-03-05T23:03:20.272Z,18.3
2023-03-05T23:13:21.139Z,17.8
2023-03-05T23:23:21.939Z,17.9
2023-03-05T23:33:22.189Z,17.7
2023-03-05T23:43:21.985Z,18.4
2023-03-05T23:53:22.894Z,19.9
